Portada
METAR-TAF:

METAR-TAF

Aeropuertos :

Bella Coola, Columbia Británica, Canadá

latitud: 52-23N, longitud: 126-35W, altitud: 35 m

Observación

El informe se hizo hace 50 minutos, a las 22:00 UTC
Viento 4 kt del este-noreste
Temperatura 1°C
Humedad 75%
Presión 1011 hPa
Visibilidad: 24.1 km
Escasas nubes a una altura de 2800 ft
Escasas nubes a una altura de 8200 ft

METAR: CYBD 202200Z 06004KT 15SM FEW028 FEW082 01/M03 A2984 RMK SC1AC2 SC TR SLP108

Hora: 14:50 (22:50 UTC)


TAF: falta

Observaciones y pronósticos meteorológicos de más de 4000 aeropuertos (mensajes METAR y TAF).

Los puntos amarillos y rojos representan las estaciones disponibles.

Ponga el ratón en el punto deseado para ver el nombre de la estación.

Haga clic para ver las observaciones y los pronósticos meteorológicos.

Para cambiar el mapa : haga clic en los botones verdes con una cruz de color negro para hacer un zoom, en el botón verde con un guión para alejar o en las flechas verdes para mapas adyacentes.


METAR-TAF: